Time;durP1;ratioP1;P1;durP2;ratioP2;P2;SDS_P1;SDS_P2;PMS_P1;PMS_P2;Temp;Humidity;BMP_temperature;BMP_pressure;BME280_temperature;BME280_humidity;BME280_pressure;Samples;Min_cycle;Max_cycle;Signal;HPM_P1;HPM_P2
2023/03/06 00:00:05;;;;;;;2.92;1.45;;;24.40;64.40;;;;;;5143285;23;20485;-52
2023/03/06 00:02:28;;;;;;;2.22;1.80;;;24.50;66.80;;;;;;5146498;23;20446;-48
2023/03/06 00:04:52;;;;;;;2.85;1.70;;;24.60;66.80;;;;;;5136717;23;20024;-53
2023/03/06 00:07:14;;;;;;;;;;;24.60;62.30;;;;;;5145238;23;20016;-47
2023/03/06 00:09:36;;;;;;;1.90;1.60;;;24.50;60.00;;;;;;5145776;23;19934;-49
2023/03/06 00:11:58;;;;;;;2.20;1.60;;;24.30;60.00;;;;;;5145067;23;20016;-47
2023/03/06 00:14:21;;;;;;;2.30;1.70;;;24.20;59.60;;;;;;5143446;23;20442;-50
2023/03/06 00:16:43;;;;;;;2.78;1.67;;;24.20;59.40;;;;;;5146331;23;20024;-50
2023/03/06 00:19:06;;;;;;;2.25;1.85;;;24.10;59.50;;;;;;5145610;23;20107;-50
2023/03/06 00:21:28;;;;;;;2.38;1.92;;;24.00;59.10;;;;;;5138610;23;20081;-48
2023/03/06 00:23:50;;;;;;;2.08;1.73;;;24.00;59.30;;;;;;5148165;23;20024;-47
2023/03/06 00:26:13;;;;;;;2.85;2.00;;;24.00;59.30;;;;;;5146626;23;20040;-46
2023/03/06 00:28:36;;;;;;;1.98;1.67;;;23.90;59.30;;;;;;5148051;23;20023;-48
2023/03/06 00:30:58;;;;;;;1.97;1.70;;;23.90;59.10;;;;;;5148182;23;20382;-49
2023/03/06 00:33:21;;;;;;;2.58;1.90;;;23.90;59.10;;;;;;5137929;23;20107;-49
2023/03/06 00:35:43;;;;;;;2.25;1.63;;;23.80;59.30;;;;;;5140494;23;20016;-48
2023/03/06 00:38:06;;;;;;;2.03;1.70;;;23.80;59.20;;;;;;5147518;23;20407;-48
2023/03/06 00:40:28;;;;;;;2.45;1.70;;;23.80;59.50;;;;;;5144396;23;20024;-49
2023/03/06 00:42:51;;;;;;;2.25;1.63;;;23.90;59.80;;;;;;5146165;23;20506;-47
2023/03/06 00:45:14;;;;;;;2.30;1.65;;;24.00;60.00;;;;;;5145653;23;20087;-47
2023/03/06 00:47:37;;;;;;;1.92;1.30;;;24.00;60.20;;;;;;5136378;23;20016;-48
2023/03/06 00:50:00;;;;;;;1.85;1.35;;;24.20;60.40;;;;;;5136981;23;20016;-47
2023/03/06 00:52:22;;;;;;;1.95;1.33;;;24.30;60.70;;;;;;5144553;23;20019;-48
2023/03/06 00:54:44;;;;;;;1.58;1.10;;;24.40;60.80;;;;;;5136209;23;20359;-43
2023/03/06 00:57:08;;;;;;;1.60;1.27;;;24.40;60.90;;;;;;5144221;23;20016;-47
2023/03/06 00:59:30;;;;;;;1.48;1.20;;;24.60;61.00;;;;;;5129322;23;20032;-50
2023/03/06 01:01:53;;;;;;;2.00;1.20;;;24.70;61.10;;;;;;5144832;23;20009;-51
2023/03/06 01:04:16;;;;;;;1.58;1.20;;;24.80;61.20;;;;;;5145525;23;20020;-43
2023/03/06 01:06:38;;;;;;;1.42;1.00;;;24.90;61.30;;;;;;5133042;23;20056;-47
2023/03/06 01:09:01;;;;;;;1.73;1.35;;;25.00;62.10;;;;;;5132748;23;20083;-46
2023/03/06 01:11:24;;;;;;;2.13;1.52;;;25.10;60.20;;;;;;5144833;23;20514;-44
2023/03/06 01:13:46;;;;;;;2.90;1.45;;;25.10;59.00;;;;;;5144053;23;20020;-48
2023/03/06 01:16:12;;;;;;;3.08;1.65;;;25.00;58.60;;;;;;5144512;23;20035;-49
2023/03/06 01:18:34;;;;;;;3.47;1.70;;;24.90;58.20;;;;;;5141594;23;20017;-52
2023/03/06 01:20:57;;;;;;;2.10;1.67;;;24.80;58.00;;;;;;5144329;23;20504;-47
2023/03/06 01:23:19;;;;;;;2.65;1.83;;;24.70;58.00;;;;;;5146103;23;20350;-49
2023/03/06 01:25:42;;;;;;;1.83;1.60;;;24.60;58.00;;;;;;5142952;23;20477;-47
2023/03/06 01:28:04;;;;;;;3.50;1.90;;;24.50;58.00;;;;;;5145483;23;20016;-49
2023/03/06 01:30:27;;;;;;;3.47;2.03;;;24.50;58.30;;;;;;5145151;23;20016;-49
2023/03/06 01:32:49;;;;;;;1.95;1.55;;;24.50;58.40;;;;;;5144648;23;20526;-49
2023/03/06 01:35:13;;;;;;;3.30;1.60;;;24.50;59.10;;;;;;5145056;23;20072;-45
2023/03/06 01:37:36;;;;;;;2.78;1.70;;;24.60;59.40;;;;;;5141338;23;20341;-53
2023/03/06 01:39:58;;;;;;;2.30;1.50;;;24.80;59.60;;;;;;5143267;23;20024;-50
2023/03/06 01:42:21;;;;;;;2.13;1.67;;;24.90;59.80;;;;;;5144087;23;20058;-49
2023/03/06 01:45:00;;;;;;;2.63;1.77;;;24.80;58.80;;;;;;5143126;23;20020;-49
2023/03/06 01:47:23;;;;;;;2.50;1.70;;;24.80;58.60;;;;;;5143017;23;20012;-49
2023/03/06 01:49:45;;;;;;;2.00;1.70;;;24.70;58.60;;;;;;5142633;23;20012;-48
2023/03/06 01:52:17;;;;;;;2.47;1.88;;;24.70;58.70;;;;;;5144181;23;20023;-49
2023/03/06 01:54:50;;;;;;;2.42;1.90;;;24.60;58.70;;;;;;5141729;23;20019;-48
2023/03/06 01:57:19;;;;;;;2.15;1.70;;;24.60;58.70;;;;;;5131550;23;20016;-45
2023/03/06 01:59:43;;;;;;;1.77;1.60;;;24.60;58.50;;;;;;5143385;23;20028;-48
2023/03/06 02:02:09;;;;;;;1.98;1.60;;;24.50;58.30;;;;;;5130264;23;20016;-47
2023/03/06 02:04:32;;;;;;;2.45;1.80;;;24.50;58.30;;;;;;5129783;23;20023;-46
2023/03/06 02:06:57;;;;;;;2.33;1.70;;;24.40;58.10;;;;;;5130620;23;20194;-46
2023/03/06 02:09:20;;;;;;;1.98;1.60;;;24.40;58.20;;;;;;5133160;23;20020;-45
2023/03/06 02:11:45;;;;;;;2.08;1.60;;;24.40;58.20;;;;;;5135311;23;20021;-43
2023/03/06 02:14:07;;;;;;;2.15;1.48;;;24.40;58.20;;;;;;5128822;23;20016;-47
2023/03/06 02:16:33;;;;;;;2.03;1.58;;;24.40;58.40;;;;;;5129281;23;20048;-41
2023/03/06 02:18:57;;;;;;;3.03;1.40;;;24.30;58.10;;;;;;5129785;23;20029;-40
2023/03/06 02:21:26;;;;;;;3.00;1.35;;;24.30;58.50;;;;;;5130635;23;20311;-41
2023/03/06 02:24:25;;;;;;;2.22;1.70;;;24.30;59.10;;;;;;5129884;23;20091;-44
2023/03/06 02:26:49;;;;;;;1.83;1.52;;;24.30;58.90;;;;;;5131017;23;20063;-43
2023/03/06 02:29:11;;;;;;;2.22;1.60;;;24.30;58.90;;;;;;5125690;23;20021;-43
2023/03/06 02:31:34;;;;;;;2.30;1.73;;;24.30;58.90;;;;;;5131154;23;20067;-44
2023/03/06 02:34:07;;;;;;;2.30;1.60;;;24.30;58.80;;;;;;5124187;23;20160;-49
2023/03/06 02:36:31;;;;;;;1.77;1.48;;;24.30;58.60;;;;;;5130773;23;20023;-44
2023/03/06 02:38:53;;;;;;;1.95;1.50;;;24.20;58.70;;;;;;5132669;23;20405;-44
2023/03/06 02:41:16;;;;;;;2.50;1.80;;;24.20;58.70;;;;;;5131149;23;20024;-43
2023/03/06 02:43:40;;;;;;;2.20;1.60;;;24.20;58.80;;;;;;5132153;23;20406;-44
2023/03/06 02:46:02;;;;;;;3.08;1.83;;;24.20;58.80;;;;;;5132135;23;20013;-45
2023/03/06 02:48:24;;;;;;;3.45;2.30;;;24.20;58.80;;;;;;5129257;23;20350;-49
2023/03/06 02:50:48;;;;;;;5.18;2.88;;;24.20;59.10;;;;;;5131664;23;20013;-45
2023/03/06 02:53:12;;;;;;;5.60;3.78;;;24.20;59.10;;;;;;5134136;23;20067;-46
2023/03/06 02:55:35;;;;;;;6.20;4.85;;;24.20;59.20;;;;;;5135058;23;20071;-45
2023/03/06 02:57:57;;;;;;;6.15;4.47;;;24.20;59.30;;;;;;5135219;23;20095;-45
2023/03/06 03:00:20;;;;;;;7.65;6.15;;;24.20;59.40;;;;;;5135627;23;20652;-47
2023/03/06 03:02:43;;;;;;;6.65;5.78;;;24.20;59.30;;;;;;5138708;23;20410;-48
2023/03/06 03:05:06;;;;;;;7.97;6.25;;;24.20;59.40;;;;;;5138531;23;20070;-48
2023/03/06 03:07:28;;;;;;;9.43;7.38;;;24.20;59.20;;;;;;5137978;23;20020;-46
2023/03/06 03:09:50;;;;;;;8.00;6.93;;;24.20;59.10;;;;;;5137865;23;20070;-44
2023/03/06 03:12:13;;;;;;;10.52;7.75;;;24.20;58.90;;;;;;5138240;23;20172;-47
2023/03/06 03:14:35;;;;;;;9.88;7.95;;;24.10;58.70;;;;;;5139324;23;20103;-45
2023/03/06 03:16:58;;;;;;;10.63;8.10;;;24.00;58.80;;;;;;5136032;23;20016;-44
2023/03/06 03:19:21;;;;;;;10.07;8.43;;;24.00;58.90;;;;;;5130408;23;20376;-46
2023/03/06 03:21:43;;;;;;;10.95;8.65;;;24.00;59.00;;;;;;5137539;23;20099;-46
2023/03/06 03:24:06;;;;;;;11.80;8.00;;;23.90;59.30;;;;;;5138492;23;20436;-47
2023/03/06 03:26:28;;;;;;;10.23;8.35;;;23.90;59.20;;;;;;5139241;23;20047;-42
2023/03/06 03:28:51;;;;;;;9.27;7.25;;;23.90;59.00;;;;;;5137632;23;20458;-48
2023/03/06 03:31:13;;;;;;;10.32;8.13;;;23.90;58.90;;;;;;5138815;23;20442;-45
2023/03/06 03:33:36;;;;;;;9.27;7.93;;;23.90;58.90;;;;;;5139501;23;20016;-47
2023/03/06 03:36:03;;;;;;;9.23;8.23;;;23.90;58.70;;;;;;5140781;23;20096;-45
2023/03/06 03:38:25;;;;;;;10.30;8.18;;;23.90;58.70;;;;;;5126369;23;20411;-45
2023/03/06 03:40:48;;;;;;;10.85;8.10;;;23.90;58.60;;;;;;5139444;23;20076;-47
2023/03/06 03:43:10;;;;;;;9.30;7.40;;;23.90;58.60;;;;;;5139417;23;20124;-43
2023/03/06 03:45:33;;;;;;;8.80;7.90;;;23.90;58.60;;;;;;5139711;23;20540;-44
2023/03/06 03:47:55;;;;;;;9.18;7.82;;;23.90;58.50;;;;;;5139445;23;20024;-44
2023/03/06 03:50:18;;;;;;;9.82;7.55;;;23.90;58.60;;;;;;5132263;23;20016;-43
2023/03/06 03:52:40;;;;;;;9.10;7.43;;;23.90;58.60;;;;;;5127791;23;20021;-47
2023/03/06 03:55:04;;;;;;;8.73;7.57;;;23.90;58.70;;;;;;5132230;23;20020;-45
2023/03/06 03:57:26;;;;;;;8.82;6.80;;;23.90;58.70;;;;;;5139754;23;20016;-43
2023/03/06 03:59:49;;;;;;;8.13;6.88;;;23.80;58.90;;;;;;5138611;23;20036;-43
2023/03/06 04:02:11;;;;;;;8.55;7.38;;;23.80;58.90;;;;;;5135844;23;20028;-47
2023/03/06 04:04:34;;;;;;;8.52;7.03;;;23.80;58.80;;;;;;5137418;23;20028;-47
2023/03/06 04:06:56;;;;;;;8.10;6.80;;;23.80;58.90;;;;;;5137676;23;20115;-45
2023/03/06 04:09:19;;;;;;;9.07;7.53;;;23.70;58.60;;;;;;5137046;23;20100;-46
2023/03/06 04:11:41;;;;;;;13.88;7.30;;;23.70;58.90;;;;;;5137891;23;20016;-49
2023/03/06 04:14:04;;;;;;;8.10;6.63;;;23.60;58.90;;;;;;5124844;23;20102;-47
2023/03/06 04:16:26;;;;;;;8.38;6.90;;;23.70;58.70;;;;;;5132843;23;20012;-50
2023/03/06 04:18:49;;;;;;;9.05;6.82;;;23.60;58.90;;;;;;5134640;23;20020;-50
2023/03/06 04:21:11;;;;;;;8.05;6.63;;;23.70;59.20;;;;;;5131674;23;20016;-45
2023/03/06 04:23:34;;;;;;;7.97;6.95;;;23.70;59.10;;;;;;5139785;23;20008;-49
2023/03/06 04:25:56;;;;;;;8.82;7.38;;;23.70;59.20;;;;;;5141995;23;20024;-50
2023/03/06 04:28:19;;;;;;;9.32;7.78;;;23.70;59.20;;;;;;5133717;23;20012;-49
2023/03/06 04:30:41;;;;;;;9.45;7.60;;;23.70;59.10;;;;;;5141004;23;20099;-45
2023/03/06 04:33:05;;;;;;;9.55;7.82;;;23.70;59.40;;;;;;5139467;23;20406;-48
2023/03/06 04:35:27;;;;;;;8.73;7.57;;;23.70;58.70;;;;;;5130887;23;20016;-52
2023/03/06 04:37:49;;;;;;;12.32;8.13;;;23.70;58.60;;;;;;5140423;23;20253;-45
2023/03/06 04:40:18;;;;;;;8.27;7.13;;;23.60;58.70;;;;;;5137719;23;20430;-49
2023/03/06 04:42:41;;;;;;;7.75;6.65;;;23.70;58.70;;;;;;5138217;23;20266;-46
2023/03/06 04:45:03;;;;;;;8.07;6.47;;;23.70;58.80;;;;;;5138114;23;20189;-51
2023/03/06 04:47:26;;;;;;;7.35;6.45;;;23.70;58.30;;;;;;5139252;23;20016;-49
2023/03/06 04:49:48;;;;;;;7.32;6.43;;;23.70;58.40;;;;;;5138453;23;20541;-44
2023/03/06 04:52:10;;;;;;;7.32;6.28;;;23.70;58.10;;;;;;5127985;23;20512;-45
2023/03/06 04:54:33;;;;;;;7.22;5.88;;;23.70;58.10;;;;;;5137981;23;20012;-44
2023/03/06 04:56:56;;;;;;;7.95;6.38;;;23.80;58.00;;;;;;5138367;23;20016;-48
2023/03/06 04:59:18;;;;;;;6.70;5.93;;;23.80;58.20;;;;;;5137948;23;20087;-47
2023/03/06 05:01:40;;;;;;;7.18;5.72;;;23.80;58.10;;;;;;5139107;23;20021;-43
2023/03/06 05:04:03;;;;;;;6.60;5.90;;;23.80;57.70;;;;;;5140781;23;20017;-48
2023/03/06 05:06:25;;;;;;;6.60;5.63;;;23.90;57.80;;;;;;5144462;23;20505;-46
2023/03/06 05:08:48;;;;;;;6.57;5.78;;;24.00;57.80;;;;;;5144512;23;20348;-46
2023/03/06 05:11:10;;;;;;;6.88;5.35;;;24.00;57.80;;;;;;5146801;23;20027;-44
2023/03/06 05:13:33;;;;;;;6.78;5.60;;;24.00;57.70;;;;;;5145360;23;20121;-47
2023/03/06 05:16:00;;;;;;;7.32;6.10;;;24.10;57.40;;;;;;5145968;23;20466;-45
2023/03/06 05:18:23;;;;;;;8.27;6.45;;;24.10;57.20;;;;;;5144483;23;20013;-44
2023/03/06 05:20:45;;;;;;;10.15;7.15;;;24.10;57.00;;;;;;5136016;23;20048;-44
2023/03/06 05:23:07;;;;;;;8.65;6.30;;;24.00;57.10;;;;;;5142894;23;20023;-45
2023/03/06 05:25:30;;;;;;;9.15;6.15;;;24.00;57.20;;;;;;5141172;23;20568;-44
2023/03/06 05:27:52;;;;;;;8.13;5.63;;;24.00;57.40;;;;;;5140208;23;20023;-45
2023/03/06 05:30:15;;;;;;;8.75;5.97;;;24.00;57.40;;;;;;5139996;23;20008;-45
2023/03/06 05:32:38;;;;;;;7.18;5.80;;;24.00;57.20;;;;;;5137843;23;20020;-47
2023/03/06 05:35:00;;;;;;;8.57;5.70;;;24.00;57.20;;;;;;5141885;23;20020;-45
2023/03/06 05:37:23;;;;;;;8.32;5.30;;;24.00;57.30;;;;;;5132618;23;20019;-46
2023/03/06 05:39:45;;;;;;;6.05;5.07;;;24.00;57.20;;;;;;5133044;23;20525;-50
2023/03/06 05:42:08;;;;;;;6.75;5.70;;;24.00;57.40;;;;;;5139114;23;20012;-44
2023/03/06 05:44:32;;;;;;;6.45;5.40;;;24.10;57.60;;;;;;5141338;23;20607;-43
2023/03/06 05:46:53;;;;;;;;;;;24.20;57.30;;;;;;5139085;23;20017;-44
2023/03/06 05:49:16;;;;;;;6.90;5.32;;;24.20;57.00;;;;;;5140428;23;20262;-42
2023/03/06 05:51:38;;;;;;;6.78;5.03;;;24.30;56.80;;;;;;5138745;23;20076;-46
2023/03/06 05:54:01;;;;;;;6.28;4.95;;;24.40;56.40;;;;;;5140691;23;20028;-46
2023/03/06 05:56:23;;;;;;;6.10;4.75;;;24.40;56.20;;;;;;5139869;23;20013;-47
2023/03/06 05:58:46;;;;;;;6.00;4.60;;;24.40;56.10;;;;;;5140881;23;20375;-45
2023/03/06 06:01:14;;;;;;;5.57;4.55;;;24.50;55.90;;;;;;5130696;23;20044;-48
2023/03/06 06:03:37;;;;;;;8.55;5.30;;;24.50;56.00;;;;;;5138313;23;20074;-42
2023/03/06 06:06:04;;;;;;;5.22;4.35;;;24.50;56.00;;;;;;5141004;23;20012;-42
2023/03/06 06:08:26;;;;;;;5.55;4.75;;;24.50;55.80;;;;;;5127166;23;20020;-42
2023/03/06 06:10:48;;;;;;;5.80;4.25;;;24.50;55.70;;;;;;5127384;23;20017;-44
2023/03/06 06:13:11;;;;;;;5.75;4.70;;;24.60;55.70;;;;;;5137289;23;20295;-42
2023/03/06 06:15:33;;;;;;;5.20;4.65;;;24.60;55.50;;;;;;5140017;23;20016;-43
2023/03/06 06:17:57;;;;;;;5.43;4.20;;;24.60;55.50;;;;;;5139950;23;20008;-46
2023/03/06 06:20:19;;;;;;;5.60;4.30;;;24.70;55.30;;;;;;5141606;23;20024;-46
2023/03/06 06:22:42;;;;;;;7.15;5.28;;;24.80;55.00;;;;;;5143491;23;20031;-43
2023/03/06 06:25:05;;;;;;;7.53;6.10;;;24.80;54.80;;;;;;5146221;23;20023;-45
2023/03/06 06:27:28;;;;;;;6.55;5.85;;;24.80;54.90;;;;;;5144656;23;20324;-46
2023/03/06 06:29:51;;;;;;;6.50;5.82;;;24.80;54.90;;;;;;5144787;23;20142;-44
2023/03/06 06:32:13;;;;;;;6.75;5.75;;;24.80;54.90;;;;;;5143644;23;20013;-43
2023/03/06 06:34:36;;;;;;;6.47;5.78;;;24.80;54.70;;;;;;5143153;23;20029;-43
2023/03/06 06:36:58;;;;;;;5.80;5.15;;;24.90;54.70;;;;;;5144257;23;20477;-46
2023/03/06 06:39:22;;;;;;;5.78;5.18;;;24.90;54.70;;;;;;5132394;23;20028;-45
2023/03/06 06:41:46;;;;;;;;;;;25.00;54.30;;;;;;5146943;22;20118;-44
2023/03/06 06:44:13;;;;;;;4.53;4.00;;;25.00;54.30;;;;;;5145598;23;19904;-48
2023/03/06 06:46:36;;;;;;;4.22;3.45;;;25.20;54.40;;;;;;5135168;23;20455;-45
2023/03/06 06:49:01;;;;;;;11.15;4.35;;;25.40;54.40;;;;;;5143734;23;20455;-45
2023/03/06 06:51:23;;;;;;;4.20;3.25;;;25.70;54.20;;;;;;5143250;23;20355;-48
2023/03/06 06:53:46;;;;;;;6.13;2.78;;;25.90;54.00;;;;;;5145971;23;20064;-45
2023/03/06 06:56:08;;;;;;;3.47;2.60;;;26.10;54.00;;;;;;5142600;23;20015;-42
2023/03/06 06:58:30;;;;;;;3.45;2.70;;;26.20;53.90;;;;;;5143657;23;20024;-44
2023/03/06 07:00:53;;;;;;;4.35;2.97;;;26.40;53.60;;;;;;5143661;23;20028;-44
2023/03/06 07:03:15;;;;;;;5.43;3.58;;;26.40;52.00;;;;;;5134520;23;20023;-47
2023/03/06 07:05:40;;;;;;;4.70;4.07;;;26.20;51.80;;;;;;5136134;23;20406;-48
2023/03/06 07:08:02;;;;;;;6.35;4.20;;;26.00;51.80;;;;;;5144151;23;20017;-46
2023/03/06 07:10:25;;;;;;;6.45;5.10;;;25.70;51.90;;;;;;5144883;23;20025;-46
2023/03/06 07:12:47;;;;;;;8.02;5.18;;;25.50;52.20;;;;;;5142205;23;20067;-46
2023/03/06 07:15:13;;;;;;;5.35;4.50;;;25.30;52.80;;;;;;5142653;23;20017;-47
2023/03/06 07:17:35;;;;;;;7.90;4.82;;;25.20;53.00;;;;;;5140810;23;20462;-44
2023/03/06 07:19:58;;;;;;;5.45;4.95;;;25.10;53.20;;;;;;5140657;23;20336;-43
2023/03/06 07:22:21;;;;;;;5.72;5.10;;;25.00;53.40;;;;;;5134512;23;20385;-44
2023/03/06 07:24:43;;;;;;;5.75;4.88;;;24.90;53.90;;;;;;5144239;23;20016;-45
2023/03/06 07:27:05;;;;;;;5.95;4.90;;;24.80;54.10;;;;;;5141592;23;20071;-43
2023/03/06 07:29:28;;;;;;;6.72;4.70;;;24.70;54.20;;;;;;5141582;23;20009;-44
2023/03/06 07:31:51;;;;;;;4.43;4.03;;;24.60;54.60;;;;;;5142899;23;20047;-46
2023/03/06 07:34:14;;;;;;;4.90;4.40;;;24.50;54.90;;;;;;5141334;23;20462;-44
2023/03/06 07:36:39;;;;;;;6.13;4.38;;;24.40;55.20;;;;;;5140810;23;20013;-50
2023/03/06 07:39:01;;;;;;;10.18;4.40;;;24.40;55.10;;;;;;5126420;23;20024;-47
2023/03/06 07:41:24;;;;;;;8.65;3.85;;;24.30;55.30;;;;;;5140485;23;20024;-48
2023/03/06 07:43:46;;;;;;;4.25;3.28;;;24.30;55.30;;;;;;5137447;23;20020;-46
2023/03/06 07:46:09;;;;;;;5.18;3.53;;;24.20;55.10;;;;;;5140260;23;20297;-50
2023/03/06 07:48:32;;;;;;;4.75;3.55;;;24.20;55.10;;;;;;5140368;23;20075;-47
2023/03/06 07:51:00;;;;;;;3.92;2.92;;;24.10;55.20;;;;;;5140717;23;20457;-48
2023/03/06 07:53:23;;;;;;;3.45;2.70;;;24.10;55.20;;;;;;5138418;23;20446;-47
2023/03/06 07:55:45;;;;;;;3.75;2.60;;;24.00;55.30;;;;;;5141876;23;20017;-46
2023/03/06 07:58:08;;;;;;;3.40;2.38;;;24.00;55.10;;;;;;5142757;23;20542;-50
2023/03/06 08:00:30;;;;;;;3.58;2.42;;;23.90;55.10;;;;;;5142340;23;20108;-48
2023/03/06 08:02:53;;;;;;;3.50;2.40;;;23.80;55.30;;;;;;5133015;23;20068;-50
2023/03/06 08:05:17;;;;;;;2.65;2.03;;;23.80;55.20;;;;;;5144250;23;20051;-45
2023/03/06 08:07:39;;;;;;;3.35;2.35;;;23.70;55.60;;;;;;5141840;23;20396;-45
2023/03/06 08:10:02;;;;;;;2.83;2.15;;;23.70;55.40;;;;;;5145940;23;20328;-44
2023/03/06 08:12:24;;;;;;;3.13;2.05;;;23.60;55.50;;;;;;5144733;23;20406;-45
2023/03/06 08:14:46;;;;;;;2.90;2.05;;;23.50;55.50;;;;;;5133170;23;20020;-48
2023/03/06 08:17:09;;;;;;;3.30;2.10;;;23.50;55.70;;;;;;5143510;23;20020;-44
2023/03/06 08:19:31;;;;;;;5.63;2.25;;;23.40;55.70;;;;;;5143511;23;20386;-46
2023/03/06 08:21:54;;;;;;;2.40;1.63;;;23.40;55.90;;;;;;5134956;23;20012;-46
2023/03/06 08:24:17;;;;;;;2.70;1.90;;;23.40;55.70;;;;;;5145669;23;20430;-47
2023/03/06 08:26:39;;;;;;;2.35;1.70;;;23.30;55.90;;;;;;5147610;23;20036;-46
2023/03/06 08:29:02;;;;;;;2.50;1.80;;;23.30;55.80;;;;;;5146886;23;20013;-47
2023/03/06 08:31:31;;;;;;;2.80;1.70;;;23.20;55.60;;;;;;5146364;23;20016;-48
2023/03/06 08:33:56;;;;;;;2.45;1.80;;;23.20;55.80;;;;;;5134388;23;20435;-45
2023/03/06 08:36:18;;;;;;;2.58;1.60;;;23.10;55.70;;;;;;5146545;23;20470;-48
2023/03/06 08:38:41;;;;;;;3.38;1.70;;;23.10;56.00;;;;;;5146709;23;20028;-50
2023/03/06 08:41:03;;;;;;;2.38;1.52;;;23.00;55.70;;;;;;5145911;23;20025;-45
2023/03/06 08:43:26;;;;;;;2.47;1.60;;;23.00;55.80;;;;;;5145710;23;20017;-48
2023/03/06 08:45:56;;;;;;;2.53;1.50;;;22.90;55.90;;;;;;5146288;23;20090;-48
2023/03/06 08:48:18;;;;;;;3.22;1.67;;;22.90;56.00;;;;;;5145756;23;20439;-45
2023/03/06 08:50:41;;;;;;;2.42;1.60;;;22.80;56.10;;;;;;5144469;23;20020;-46
2023/03/06 08:53:03;;;;;;;3.00;1.65;;;22.80;56.40;;;;;;5145715;23;20471;-44
2023/03/06 08:55:28;;;;;;;2.33;1.55;;;22.80;56.40;;;;;;5145481;23;20131;-52
2023/03/06 08:57:51;;;;;;;14.00;2.70;;;22.70;56.40;;;;;;5144300;23;20119;-42
2023/03/06 09:00:14;;;;;;;5.50;2.25;;;22.70;57.00;;;;;;5143120;23;20028;-45
2023/03/06 09:02:36;;;;;;;5.35;2.20;;;22.70;57.90;;;;;;5143630;23;20115;-45
2023/03/06 09:05:00;;;;;;;5.32;1.70;;;22.90;57.30;;;;;;5145270;23;20071;-49
2023/03/06 09:07:22;;;;;;;7.93;1.92;;;23.00;57.30;;;;;;5145191;23;20052;-43
2023/03/06 09:09:44;;;;;;;5.68;1.80;;;23.10;57.20;;;;;;5127350;23;20016;-42
2023/03/06 09:12:07;;;;;;;6.22;1.98;;;23.30;57.10;;;;;;5142696;23;20008;-43
2023/03/06 09:14:31;;;;;;;3.08;1.58;;;23.40;56.80;;;;;;5142931;23;20019;-46
2023/03/06 09:16:53;;;;;;;3.35;1.73;;;23.50;56.90;;;;;;5142465;23;20350;-43
2023/03/06 09:19:15;;;;;;;2.53;1.33;;;23.60;56.90;;;;;;5143686;23;20028;-49
2023/03/06 09:21:38;;;;;;;2.60;1.38;;;23.70;56.60;;;;;;5139962;23;20013;-43
2023/03/06 09:24:00;;;;;;;3.65;1.27;;;23.80;56.40;;;;;;5140593;23;20020;-45
2023/03/06 09:26:23;;;;;;;1.88;1.45;;;23.90;56.20;;;;;;5133733;23;20479;-47
2023/03/06 09:28:46;;;;;;;1.88;1.48;;;23.90;56.10;;;;;;5135047;23;20017;-45
2023/03/06 09:31:17;;;;;;;1.40;1.15;;;24.00;55.80;;;;;;5142805;23;20016;-46
2023/03/06 09:33:40;;;;;;;1.65;1.40;;;24.10;55.50;;;;;;5143394;23;20067;-46
2023/03/06 09:36:02;;;;;;;1.92;1.30;;;24.20;55.40;;;;;;5145272;22;20366;-45
2023/03/06 09:38:26;;;;;;;1.95;1.30;;;24.20;55.40;;;;;;5140898;23;20015;-47
2023/03/06 09:41:15;;;;;;;1.38;1.10;;;24.30;55.30;;;;;;5141939;23;20056;-48
2023/03/06 09:43:46;;;;;;;2.13;1.38;;;24.30;55.20;;;;;;5132808;23;20012;-45
2023/03/06 09:46:35;;;;;;;1.65;1.20;;;24.40;55.10;;;;;;5140863;23;20027;-43
2023/03/06 09:49:00;;;;;;;1.55;1.33;;;24.50;54.90;;;;;;5139816;23;20028;-44
2023/03/06 09:51:35;;;;;;;1.50;1.40;;;24.50;54.70;;;;;;5135797;23;20095;-45
2023/03/06 09:54:12;;;;;;;;;;;24.60;54.50;;;;;;5142474;23;20362;-43
2023/03/06 09:56:35;;;;;;;2.17;1.30;;;24.60;54.60;;;;;;5131144;23;19907;-49
2023/03/06 09:59:23;;;;;;;4.03;1.50;;;24.80;54.30;;;;;;5142498;23;20024;-45
2023/03/06 10:02:12;;;;;;;1.63;1.13;;;24.80;54.20;;;;;;5142021;23;20073;-44
2023/03/06 10:04:43;;;;;;;1.70;1.50;;;24.80;54.00;;;;;;5132169;23;20086;-45
2023/03/06 10:07:30;;;;;;;1.85;1.20;;;24.90;53.90;;;;;;5130440;23;20625;-44
2023/03/06 10:10:06;;;;;;;1.85;1.30;;;24.90;53.80;;;;;;5143519;23;20427;-48
2023/03/06 10:12:39;;;;;;;1.42;1.30;;;25.00;53.90;;;;;;5140747;23;20012;-43
2023/03/06 10:15:27;;;;;;;1.23;1.00;;;25.00;53.50;;;;;;5130272;23;20086;-45
2023/03/06 10:17:50;;;;;;;1.33;1.23;;;25.10;53.50;;;;;;5140959;23;20043;-44
2023/03/06 10:20:27;;;;;;;1.60;1.13;;;25.10;53.30;;;;;;5141675;23;20059;-48
2023/03/06 10:23:08;;;;;;;2.00;1.40;;;25.10;52.70;;;;;;5128469;23;20012;-50
2023/03/06 10:25:41;;;;;;;1.60;1.25;;;25.10;52.70;;;;;;5142089;23;20500;-44
2023/03/06 10:28:14;;;;;;;4.82;1.70;;;25.00;52.40;;;;;;5143720;23;20119;-46
2023/03/06 10:31:16;;;;;;;2.90;1.70;;;25.00;51.90;;;;;;5135288;23;20016;-48
2023/03/06 10:33:53;;;;;;;3.15;1.92;;;24.80;52.80;;;;;;5040179;23;20046;-44
2023/03/06 10:36:17;;;;;;;3.40;1.88;;;24.70;52.10;;;;;;5134070;23;20027;-47
2023/03/06 10:38:40;;;;;;;2.00;1.50;;;24.60;51.60;;;;;;5142794;23;20039;-44
2023/03/06 10:41:12;;;;;;;3.25;2.00;;;24.50;52.60;;;;;;5132491;23;20078;-45
2023/03/06 10:43:35;;;;;;;3.15;1.70;;;24.40;52.30;;;;;;5141114;23;20020;-45
2023/03/06 10:45:58;;;;;;;3.05;1.98;;;24.30;52.30;;;;;;5140978;23;20086;-51
2023/03/06 10:48:28;;;;;;;2.88;1.90;;;24.20;52.30;;;;;;5140868;23;20470;-46
2023/03/06 10:50:51;;;;;;;2.83;1.80;;;24.10;52.60;;;;;;5141470;23;20020;-47
2023/03/06 10:53:34;;;;;;;3.15;2.13;;;24.00;52.70;;;;;;5142045;23;20012;-43
2023/03/06 10:55:58;;;;;;;2.63;1.88;;;23.90;53.20;;;;;;5132426;23;20023;-44
2023/03/06 10:58:31;;;;;;;3.13;2.00;;;23.80;52.90;;;;;;5130174;23;20547;-46
2023/03/06 11:01:05;;;;;;;3.53;2.20;;;23.80;53.80;;;;;;5141663;23;20031;-48
2023/03/06 11:03:28;;;;;;;3.00;2.08;;;23.70;53.90;;;;;;5141404;23;20012;-51
2023/03/06 11:06:15;;;;;;;3.93;1.83;;;23.60;53.30;;;;;;5141310;23;20016;-44
2023/03/06 11:08:39;;;;;;;3.60;2.03;;;23.60;53.20;;;;;;5127694;23;20604;-44
2023/03/06 11:11:03;;;;;;;;;;;23.50;54.30;;;;;;5128550;23;20427;-43
2023/03/06 11:13:27;;;;;;;3.07;1.70;;;23.60;54.40;;;;;;5140189;23;20235;-43
2023/03/06 11:16:02;;;;;;;2.83;1.80;;;23.80;54.60;;;;;;5132971;23;20032;-43
2023/03/06 11:18:27;;;;;;;3.58;1.88;;;24.00;56.10;;;;;;5139319;23;20020;-44
2023/03/06 11:20:52;;;;;;;6.95;2.05;;;24.00;54.80;;;;;;5141163;23;20355;-42
2023/03/06 11:23:35;;;;;;;7.70;2.25;;;23.90;54.80;;;;;;5142596;23;20013;-46
2023/03/06 11:26:20;;;;;;;7.20;2.00;;;23.90;55.30;;;;;;5141436;23;20021;-42
2023/03/06 11:29:02;;;;;;;;;;;24.00;55.50;;;;;;5142762;23;20012;-43
2023/03/06 11:31:44;;;;;;;3.33;1.70;;;24.20;55.80;;;;;;5095462;23;20330;-48
2023/03/06 11:34:18;;;;;;;3.40;1.52;;;24.40;55.90;;;;;;5142087;23;20074;-43
2023/03/06 11:37:20;;;;;;;2.80;1.60;;;24.50;56.20;;;;;;5132434;23;20508;-44
2023/03/06 11:39:58;;;;;;;2.63;1.55;;;24.70;56.30;;;;;;5141062;23;20024;-41
2023/03/06 11:42:27;;;;;;;1.70;1.20;;;24.80;56.50;;;;;;5140265;23;20016;-43
2023/03/06 11:44:54;;;;;;;3.28;1.35;;;25.00;56.70;;;;;;5142026;23;20009;-43
2023/03/06 11:47:22;;;;;;;3.50;1.42;;;25.10;56.90;;;;;;5142945;23;20351;-45
2023/03/06 11:49:53;;;;;;;5.22;1.10;;;25.20;57.10;;;;;;5141952;23;20067;-42
2023/03/06 11:52:41;;;;;;;3.00;1.50;;;25.30;57.20;;;;;;5141074;23;20359;-42
2023/03/06 11:55:04;;;;;;;4.15;1.58;;;25.40;57.10;;;;;;5126035;23;20035;-45
2023/03/06 11:57:46;;;;;;;4.13;1.60;;;25.50;57.50;;;;;;5142429;23;20016;-45
2023/03/06 12:00:12;;;;;;;4.38;1.38;;;25.60;57.60;;;;;;5142731;23;20367;-43
2023/03/06 12:03:00;;;;;;;1.95;1.30;;;25.70;57.70;;;;;;5140194;23;20012;-48
2023/03/06 12:05:51;;;;;;;3.08;1.48;;;25.70;57.60;;;;;;5139995;23;20096;-43
2023/03/06 12:09:03;;;;;;;3.78;1.48;;;25.90;57.90;;;;;;5142587;23;20024;-43
2023/03/06 12:11:43;;;;;;;2.70;1.42;;;26.00;58.00;;;;;;5032807;23;20347;-44
2023/03/06 12:14:35;;;;;;;6.28;1.70;;;26.10;58.20;;;;;;5143608;23;20100;-44
2023/03/06 12:17:13;;;;;;;26.27;3.35;;;26.10;58.30;;;;;;5143314;23;20434;-43
2023/03/06 12:19:56;;;;;;;17.90;2.85;;;26.20;58.40;;;;;;5140650;23;20362;-43
2023/03/06 12:22:18;;;;;;;10.02;2.08;;;26.30;58.40;;;;;;5133981;23;20169;-44
2023/03/06 12:25:01;;;;;;;13.68;2.33;;;26.30;58.40;;;;;;5141965;23;20127;-46
2023/03/06 12:27:55;;;;;;;13.15;2.30;;;26.40;58.40;;;;;;5142260;23;20339;-44
2023/03/06 12:30:39;;;;;;;7.05;1.80;;;26.50;58.40;;;;;;5141661;23;20038;-45
2023/03/06 12:33:17;;;;;;;5.65;1.48;;;26.60;58.60;;;;;;5135322;23;20020;-42
2023/03/06 12:35:39;;;;;;;4.93;1.65;;;26.60;58.50;;;;;;5143817;23;20013;-45
2023/03/06 12:38:04;;;;;;;6.05;1.95;;;26.60;58.50;;;;;;5143630;23;20091;-42
2023/03/06 12:41:23;;;;;;;8.45;1.73;;;26.60;58.60;;;;;;5146772;23;20028;-44